Tabuk, Saudi Arabia
Current Conditions -  °F | °C
As of 6:00 PM on Saturday 20 Dec 2014 (Local Time) from OETB Reporting Station
Clear Clear  
Wind Chill: 64°   Ceiling: Unl
Heat Index: 64°   Visibility: 6mi
Dew Point: 39°   Wind: 9mph
Humidity: 40%   Direction: 360°N
Pressure: 30"   Gusts: NA
Location:  28.39°N, 36.57°E
Report Text: OETB 201500Z 36008KT CAVOK 18/04 Q1016 NOSIG
Loading
Personal Weather Stations






























Interactive Weather Map New forecast layout! Learn more

10-Day Weather Forecast

Advertisements
Track Severe Weather on mobile